»·PEaware :: N8676U L35-KSAN

N8676U :: L35-KSAN

FLIGHT INFORMATION

Flight Status: Arrived
Operator: Privately registered:
United States
More flights under this callsign
Pilot: Anonymous 17040 (17040)
Aircraft: PIPER PA-28 CHEROKEE ARCHER
(PA28)
More flights by this aircraft type
Origin: L35 Big Bear City
United States
Destination: KSAN San Diego Intl-Lindbergh
United States
More flights between these airports :: More routes between these airports
Route: DIRECT
File this flight plan on PilotEdge
Remarks: Sample flight plan
Altitude:
(Current/Filed)
7,000ft
Speed:
(Current/Filed)
145kts
Departed: 23-Oct-17 09:34 PM
Arrived: 23-Oct-17 10:41 PM
Distance/Time
Traveled:
93nm/1:07
Distance/Time
To Go:
Arrived

Flight Plot

Page will automatically refresh every two minutes.

Flight plan parsing failed; only flown route is shown


Map Options




Map Legend


Flown Route
Filed Route
Departure Airport
Arrival Airport
Navaid (VOR, NDB)
Fix

Horizontal Profiles

Position Reports

Time Latitude Longitude Heading Altitude Ground
Speed
23-Oct-17 21:33 34.264642 -116.852447 269 6754ft 0kts
23-Oct-17 21:34 34.264642 -116.852447 269 6754ft 0kts
23-Oct-17 21:35 34.264510 -116.851762 99 6754ft 11kts
23-Oct-17 21:36 34.264466 -116.848438 87 6754ft 13kts
23-Oct-17 21:37 34.264472 -116.846776 125 6754ft 1kts
23-Oct-17 21:38 34.263987 -116.847091 270 6754ft 11kts
23-Oct-17 21:39 34.263815 -116.861422 268 6938ft 89kts
23-Oct-17 21:40 34.263049 -116.881861 256 7510ft 102kts
23-Oct-17 21:41 34.257631 -116.904276 252 8065ft 112kts
23-Oct-17 21:42 34.249038 -116.926223 216 8596ft 117kts
23-Oct-17 21:43 34.231411 -116.940495 211 9123ft 120kts
23-Oct-17 21:44 34.210626 -116.948710 196 9651ft 121kts
23-Oct-17 21:45 34.188703 -116.956414 196 10195ft 121kts
23-Oct-17 21:46 34.167300 -116.963932 196 10563ft 132kts
23-Oct-17 21:47 34.140283 -116.969531 179 10472ft 162kts
23-Oct-17 21:48 34.110361 -116.968851 178 10476ft 170kts
23-Oct-17 21:49 34.079409 -116.968078 178 10474ft 173kts
23-Oct-17 21:50 34.048693 -116.967308 178 10472ft 171kts
23-Oct-17 21:51 34.020378 -116.966577 178 10467ft 153kts
23-Oct-17 21:52 33.993732 -116.965879 178 10470ft 145kts
23-Oct-17 21:53 33.968248 -116.965208 178 10472ft 141kts
23-Oct-17 21:54 33.942967 -116.964540 178 10473ft 141kts
23-Oct-17 21:55 33.915030 -116.964119 178 10466ft 160kts
23-Oct-17 21:56 33.885875 -116.963818 187 10461ft 167kts
23-Oct-17 21:57 33.856711 -116.968665 188 10462ft 170kts
23-Oct-17 21:58 33.826891 -116.973828 188 10459ft 167kts
23-Oct-17 21:59 33.797473 -116.978902 188 10460ft 165kts
23-Oct-17 22:00 33.767849 -116.983774 187 10387ft 173kts
23-Oct-17 22:01 33.736348 -116.990426 187 10294ft 175kts
23-Oct-17 22:02 33.705288 -116.997699 188 10196ft 174kts
23-Oct-17 22:03 33.674185 -117.004986 188 10102ft 174kts
23-Oct-17 22:04 33.642968 -117.012315 188 10056ft 171kts
23-Oct-17 22:05 33.612025 -117.019602 188 10054ft 168kts
23-Oct-17 22:06 33.582114 -117.026664 188 10055ft 167kts
23-Oct-17 22:07 33.552387 -117.033687 188 10055ft 166kts
23-Oct-17 22:08 33.525230 -117.040122 188 10055ft 163kts
23-Oct-17 22:09 33.495534 -117.047160 188 10055ft 163kts
23-Oct-17 22:10 33.465352 -117.054302 188 10077ft 162kts
23-Oct-17 22:11 33.435624 -117.061367 188 10083ft 162kts
23-Oct-17 22:12 33.405007 -117.068630 188 10083ft 163kts
23-Oct-17 22:13 33.374180 -117.075934 188 10083ft 163kts
23-Oct-17 22:14 33.344808 -117.082887 188 10083ft 163kts
23-Oct-17 22:15 33.315662 -117.089778 188 10083ft 163kts
23-Oct-17 22:16 33.286947 -117.096564 188 10083ft 163kts
23-Oct-17 22:17 33.259361 -117.103079 188 10083ft 163kts
23-Oct-17 22:18 33.232039 -117.109525 188 10083ft 163kts
23-Oct-17 22:19 33.204315 -117.116061 188 10084ft 163kts
23-Oct-17 22:20 33.178449 -117.122455 197 9622ft 142kts
23-Oct-17 22:21 33.165966 -117.144746 246 8807ft 132kts
23-Oct-17 22:22 33.157222 -117.168575 245 7912ft 131kts
23-Oct-17 22:23 33.148179 -117.192316 245 7010ft 130kts
23-Oct-17 22:24 33.135380 -117.214454 199 6085ft 132kts
23-Oct-17 22:25 33.113082 -117.222828 194 5788ft 126kts
23-Oct-17 22:26 33.091069 -117.230819 194 5475ft 124kts
23-Oct-17 22:27 33.067244 -117.238515 190 5240ft 156kts
23-Oct-17 22:28 33.038553 -117.246148 190 4970ft 171kts
23-Oct-17 22:29 33.010465 -117.253571 190 4667ft 159kts
23-Oct-17 22:30 32.984125 -117.260563 190 4371ft 153kts
23-Oct-17 22:31 32.958836 -117.267338 190 4084ft 151kts
23-Oct-17 22:32 32.933170 -117.263935 165 3783ft 147kts
23-Oct-17 22:33 32.907317 -117.257634 165 3484ft 146kts
23-Oct-17 22:34 32.883290 -117.251666 165 3204ft 146kts
23-Oct-17 22:35 32.859939 -117.245559 165 2928ft 146kts
23-Oct-17 22:36 32.836776 -117.239246 162 2653ft 145kts
23-Oct-17 22:37 32.816141 -117.232616 162 2469ft 108kts
23-Oct-17 22:38 32.800754 -117.228074 159 2237ft 103kts
23-Oct-17 22:39 32.785938 -117.220571 152 2023ft 99kts
23-Oct-17 22:40 32.770920 -117.211393 150 1644ft 102kts
23-Oct-17 22:41 32.759981 -117.197828 110 1176ft 89kts
23-Oct-17 22:42 32.754305 -117.181644 116 906ft 88kts
23-Oct-17 22:43 32.747244 -117.165912 120 1089ft 88kts
23-Oct-17 22:44 32.736868 -117.160708 207 668ft 77kts
23-Oct-17 22:45 32.729039 -117.170436 281 206ft 70kts
23-Oct-17 22:46 32.731677 -117.181907 285 18ft 22kts

Navigation Log

Ident Type
Flight plan parsing failed, navigation log unavailable